Time;durP1;ratioP1;P1;durP2;ratioP2;P2;SDS_P1;SDS_P2;PMS_P1;PMS_P2;Temp;Humidity;BMP_temperature;BMP_pressure;BME280_temperature;BME280_humidity;BME280_pressure;Samples;Min_cycle;Max_cycle;Signal;HPM_P1;HPM_P2
2021/05/11 00:00:39;;;;;;;4.07;0.90;;;;;;;;;;5105653;28;20023;-55
2021/05/11 00:03:04;;;;;;;1.50;0.80;;;;;;;;;;5097013;28;20351;-55
2021/05/11 00:05:31;;;;;;;1.85;0.90;;;;;;;;;;5106971;28;20470;-56
2021/05/11 00:07:56;;;;;;;2.10;0.80;;;;;;;;;;5090640;28;20016;-56
2021/05/11 00:10:25;;;;;;;2.78;0.70;;;;;;;;;;5105538;28;20523;-57
2021/05/11 00:12:51;;;;;;;2.10;0.90;;;;;;;;;;5099591;28;20123;-56
2021/05/11 00:15:16;;;;;;;8.05;1.83;;;;;;;;;;5092063;28;20110;-57
2021/05/11 00:17:42;;;;;;;2.10;1.05;;;;;;;;;;5094243;28;20469;-57
2021/05/11 00:20:08;;;;;;;2.80;0.80;;;;;;;;;;5106476;28;20022;-57
2021/05/11 00:22:33;;;;;;;3.35;0.80;;;;;;;;;;5109997;28;20047;-55
2021/05/11 00:24:59;;;;;;;3.30;1.20;;;;;;;;;;5103299;28;20084;-56
2021/05/11 00:27:24;;;;;;;2.83;0.80;;;;;;;;;;5107707;28;20488;-57
2021/05/11 00:29:49;;;;;;;2.92;0.85;;;;;;;;;;5111617;28;20030;-57
2021/05/11 00:32:14;;;;;;;6.50;1.50;;;;;;;;;;5105111;28;20486;-55
2021/05/11 00:34:40;;;;;;;3.30;1.00;;;;;;;;;;5107965;28;20485;-56
2021/05/11 00:37:05;;;;;;;1.17;0.95;;;;;;;;;;5097527;28;20463;-57
2021/05/11 00:39:30;;;;;;;3.97;0.90;;;;;;;;;;5115689;28;20022;-56
2021/05/11 00:41:55;;;;;;;2.67;0.82;;;;;;;;;;5112520;28;20467;-57
2021/05/11 00:44:22;;;;;;;1.58;0.85;;;;;;;;;;5107790;28;20058;-56
2021/05/11 00:46:58;;;;;;;2.35;0.90;;;;;;;;;;5092858;28;20024;-56
2021/05/11 00:49:24;;;;;;;1.63;0.98;;;;;;;;;;5110980;28;20489;-56
2021/05/11 00:51:50;;;;;;;2.97;0.80;;;;;;;;;;5111940;28;20016;-55
2021/05/11 00:54:15;;;;;;;1.70;0.85;;;;;;;;;;5112489;28;20052;-56
2021/05/11 00:56:41;;;;;;;1.45;0.70;;;;;;;;;;5100159;28;20455;-55
2021/05/11 00:59:11;;;;;;;2.38;1.30;;;;;;;;;;5095853;28;20017;-55
2021/05/11 01:01:37;;;;;;;4.45;1.17;;;;;;;;;;5113090;28;20020;-55
2021/05/11 01:04:02;;;;;;;1.80;0.50;;;;;;;;;;5111457;28;20477;-57
2021/05/11 01:06:27;;;;;;;1.52;0.80;;;;;;;;;;5108427;28;20080;-54
2021/05/11 01:08:52;;;;;;;3.22;1.10;;;;;;;;;;5106145;28;20028;-54
2021/05/11 01:11:18;;;;;;;3.05;0.98;;;;;;;;;;5098917;28;20024;-56
2021/05/11 01:13:43;;;;;;;2.55;1.15;;;;;;;;;;5094976;28;20031;-53
2021/05/11 01:16:09;;;;;;;3.92;0.90;;;;;;;;;;5092700;28;20024;-56
2021/05/11 01:18:36;;;;;;;3.55;1.00;;;;;;;;;;5108996;28;20015;-56
2021/05/11 01:21:17;;;;;;;1.92;1.00;;;;;;;;;;5101629;28;20014;-56
2021/05/11 01:24:19;;;;;;;3.22;1.20;;;;;;;;;;5094165;28;20044;-53
2021/05/11 01:47:58;;;;;;;4.22;1.52;;;;;;;;;;5111130;28;20020;-58
2021/05/11 01:58:23;;;;;;;2.63;0.90;;;;;;;;;;5098552;28;20020;-56
2021/05/11 02:22:43;;;;;;;4.18;0.70;;;;;;;;;;5094683;28;20039;-57
2021/05/11 02:25:09;;;;;;;1.52;0.60;;;;;;;;;;5110613;27;20019;-55
2021/05/11 02:27:36;;;;;;;2.47;0.70;;;;;;;;;;5100676;28;20019;-51
2021/05/11 02:30:02;;;;;;;2.45;0.70;;;;;;;;;;5107277;28;20106;-53
2021/05/11 02:32:28;;;;;;;1.80;0.77;;;;;;;;;;5112577;28;20024;-53
2021/05/11 02:34:53;;;;;;;2.00;0.63;;;;;;;;;;5104041;28;20012;-53
2021/05/11 02:37:18;;;;;;;3.80;0.85;;;;;;;;;;5097666;28;20289;-56
2021/05/11 02:39:44;;;;;;;1.70;0.50;;;;;;;;;;5100778;28;20074;-55
2021/05/11 02:42:09;;;;;;;2.30;0.80;;;;;;;;;;5095869;28;20019;-56
2021/05/11 02:44:45;;;;;;;4.82;0.65;;;;;;;;;;5109202;28;20110;-54
2021/05/11 02:47:10;;;;;;;2.67;0.75;;;;;;;;;;5095599;28;20027;-55
2021/05/11 02:49:44;;;;;;;1.63;0.60;;;;;;;;;;5103146;28;20020;-53
2021/05/11 02:52:10;;;;;;;0.93;0.70;;;;;;;;;;5093583;28;20081;-52
2021/05/11 02:54:35;;;;;;;1.50;0.90;;;;;;;;;;5110596;28;20390;-56
2021/05/11 02:57:00;;;;;;;2.92;0.70;;;;;;;;;;5105949;28;20027;-57
2021/05/11 02:59:26;;;;;;;2.53;0.60;;;;;;;;;;5095199;28;20019;-56
2021/05/11 03:01:51;;;;;;;2.60;0.55;;;;;;;;;;5110279;28;20032;-56
2021/05/11 03:04:16;;;;;;;1.70;0.60;;;;;;;;;;5112853;28;20030;-53
2021/05/11 03:06:41;;;;;;;1.33;0.57;;;;;;;;;;5107935;28;20620;-51
2021/05/11 03:09:07;;;;;;;1.10;0.68;;;;;;;;;;5104265;28;20024;-54
2021/05/11 03:11:32;;;;;;;3.13;0.57;;;;;;;;;;5093333;28;20631;-58
2021/05/11 03:13:57;;;;;;;2.47;0.47;;;;;;;;;;5092268;28;20031;-55
2021/05/11 03:16:24;;;;;;;1.63;0.75;;;;;;;;;;5108103;28;20018;-53
2021/05/11 03:18:49;;;;;;;3.13;1.00;;;;;;;;;;5107999;28;20019;-54
2021/05/11 03:21:14;;;;;;;3.67;1.02;;;;;;;;;;5111556;28;20012;-56
2021/05/11 03:23:40;;;;;;;2.30;0.52;;;;;;;;;;5111455;28;20055;-58
2021/05/11 03:26:05;;;;;;;1.55;0.85;;;;;;;;;;5089946;28;20028;-55
2021/05/11 03:28:30;;;;;;;1.95;1.00;;;;;;;;;;5105060;28;20027;-59
2021/05/11 03:30:55;;;;;;;1.20;0.90;;;;;;;;;;5112512;28;20020;-55
2021/05/11 03:33:20;;;;;;;2.05;1.05;;;;;;;;;;5108939;28;20027;-57
2021/05/11 03:35:47;;;;;;;1.35;0.90;;;;;;;;;;5094403;28;20022;-57
2021/05/11 03:38:12;;;;;;;1.80;1.10;;;;;;;;;;5108667;28;20012;-57
2021/05/11 03:40:37;;;;;;;1.10;1.00;;;;;;;;;;5112701;28;20020;-57
2021/05/11 03:43:13;;;;;;;2.20;0.90;;;;;;;;;;5108322;28;20034;-54
2021/05/11 03:45:46;;;;;;;2.78;1.08;;;;;;;;;;5110236;28;20020;-54
2021/05/11 03:48:11;;;;;;;4.15;1.30;;;;;;;;;;5108970;28;20020;-53
2021/05/11 03:50:36;;;;;;;2.38;1.00;;;;;;;;;;5108524;28;20044;-56
2021/05/11 03:53:02;;;;;;;2.13;1.05;;;;;;;;;;5111062;28;20050;-56
2021/05/11 03:55:27;;;;;;;1.55;1.17;;;;;;;;;;5091262;28;20024;-56
2021/05/11 03:57:52;;;;;;;3.42;1.38;;;;;;;;;;5094840;28;20024;-56
2021/05/11 04:00:18;;;;;;;3.67;1.50;;;;;;;;;;5099211;28;20019;-54
2021/05/11 04:02:43;;;;;;;3.83;1.63;;;;;;;;;;5110702;28;20035;-57
2021/05/11 04:05:10;;;;;;;4.13;1.65;;;;;;;;;;5112206;28;20029;-57
2021/05/11 04:07:37;;;;;;;4.47;1.63;;;;;;;;;;5105277;28;20102;-52
2021/05/11 04:10:07;;;;;;;3.17;1.13;;;;;;;;;;5106260;28;20024;-55
2021/05/11 04:12:48;;;;;;;1.50;1.30;;;;;;;;;;5091684;28;20024;-56
2021/05/11 04:17:40;;;;;;;2.85;1.40;;;;;;;;;;5097350;28;20008;-56
2021/05/11 04:20:06;;;;;;;3.03;0.98;;;;;;;;;;5092084;28;20103;-54
2021/05/11 04:22:31;;;;;;;2.40;1.17;;;;;;;;;;5091558;28;20128;-56
2021/05/11 04:24:56;;;;;;;1.85;1.30;;;;;;;;;;5102646;28;20023;-51
2021/05/11 04:27:21;;;;;;;3.67;1.33;;;;;;;;;;5104178;28;20027;-56
2021/05/11 04:29:49;;;;;;;3.35;1.20;;;;;;;;;;5110110;28;20023;-56
2021/05/11 04:32:14;;;;;;;2.60;1.30;;;;;;;;;;5111114;28;20051;-56
2021/05/11 04:34:40;;;;;;;2.15;1.13;;;;;;;;;;5099406;28;20058;-51
2021/05/11 04:37:05;;;;;;;3.55;1.40;;;;;;;;;;5088471;28;20047;-56
2021/05/11 04:39:30;;;;;;;4.25;1.10;;;;;;;;;;5108768;28;20047;-58
2021/05/11 04:41:55;;;;;;;2.90;1.13;;;;;;;;;;5111843;28;20020;-57
2021/05/11 04:44:23;;;;;;;7.10;1.33;;;;;;;;;;5091498;28;20023;-57
2021/05/11 04:46:56;;;;;;;2.95;1.33;;;;;;;;;;5089481;28;20027;-57
2021/05/11 04:49:21;;;;;;;2.47;1.33;;;;;;;;;;5107646;28;20469;-51
2021/05/11 04:51:46;;;;;;;2.30;1.40;;;;;;;;;;5104128;28;20062;-54
2021/05/11 04:54:12;;;;;;;2.88;1.25;;;;;;;;;;5111511;28;20080;-55
2021/05/11 04:56:37;;;;;;;1.50;1.40;;;;;;;;;;5102332;28;20411;-56
2021/05/11 04:59:03;;;;;;;3.25;1.35;;;;;;;;;;5104268;28;20019;-51
2021/05/11 05:01:28;;;;;;;1.63;1.30;;;;;;;;;;5091656;28;20016;-52
2021/05/11 05:03:56;;;;;;;3.90;1.45;;;;;;;;;;5089939;28;20534;-53
2021/05/11 05:06:22;;;;;;;3.20;1.23;;;;;;;;;;5087037;28;20375;-54
2021/05/11 05:08:47;;;;;;;4.28;2.30;;;;;;;;;;5101718;28;20019;-58
2021/05/11 05:11:12;;;;;;;2.50;2.30;;;;;;;;;;5109146;28;20024;-52
2021/05/11 05:13:37;;;;;;;4.97;2.45;;;;;;;;;;5095107;28;20394;-55
2021/05/11 05:16:03;;;;;;;4.38;2.47;;;;;;;;;;5093378;28;20126;-57
2021/05/11 05:18:29;;;;;;;3.40;3.08;;;;;;;;;;5106887;28;20047;-57
2021/05/11 05:20:55;;;;;;;5.60;2.53;;;;;;;;;;5101523;28;20027;-58
2021/05/11 05:23:27;;;;;;;4.05;2.85;;;;;;;;;;5114571;28;20069;-58
2021/05/11 05:26:14;;;;;;;5.60;2.42;;;;;;;;;;5096519;28;20027;-54
2021/05/11 05:28:41;;;;;;;6.32;3.08;;;;;;;;;;5098910;28;20017;-56
2021/05/11 05:31:07;;;;;;;6.78;2.60;;;;;;;;;;5105197;28;20122;-52
2021/05/11 05:33:36;;;;;;;4.35;2.60;;;;;;;;;;5099888;28;20461;-54
2021/05/11 05:36:02;;;;;;;5.90;2.65;;;;;;;;;;5103400;28;20106;-56
2021/05/11 05:38:28;;;;;;;3.83;2.53;;;;;;;;;;5112599;28;20526;-52
2021/05/11 05:41:00;;;;;;;4.38;2.00;;;;;;;;;;5096814;28;20027;-50
2021/05/11 05:43:26;;;;;;;5.43;2.20;;;;;;;;;;5100436;28;20019;-56
2021/05/11 05:45:53;;;;;;;3.10;1.58;;;;;;;;;;5104873;28;20339;-54
2021/05/11 05:48:18;;;;;;;3.75;2.17;;;;;;;;;;5111352;28;20058;-54
2021/05/11 05:50:44;;;;;;;3.33;2.30;;;;;;;;;;5098704;28;20055;-54
2021/05/11 05:53:14;;;;;;;5.13;2.17;;;;;;;;;;5095566;28;20031;-54
2021/05/11 05:55:39;;;;;;;4.32;2.20;;;;;;;;;;5110295;28;20026;-57
2021/05/11 05:58:04;;;;;;;5.97;2.83;;;;;;;;;;5099538;28;20019;-52
2021/05/11 06:00:30;;;;;;;6.72;2.55;;;;;;;;;;5106704;28;20092;-57
2021/05/11 06:03:03;;;;;;;4.35;2.20;;;;;;;;;;5095926;28;20051;-58
2021/05/11 06:05:29;;;;;;;2.50;1.92;;;;;;;;;;5107329;28;20351;-57
2021/05/11 06:07:54;;;;;;;4.47;2.20;;;;;;;;;;5108806;28;20027;-55
2021/05/11 06:10:19;;;;;;;7.95;2.80;;;;;;;;;;5101610;28;20032;-57
2021/05/11 06:12:58;;;;;;;5.55;2.60;;;;;;;;;;5094612;28;20035;-57
2021/05/11 06:18:07;;;;;;;3.55;2.63;;;;;;;;;;5113550;28;20027;-57
2021/05/11 06:20:33;;;;;;;4.20;2.83;;;;;;;;;;5102417;28;20386;-57
2021/05/11 06:22:58;;;;;;;5.18;3.25;;;;;;;;;;5100695;28;20058;-56
2021/05/11 06:25:23;;;;;;;6.13;3.10;;;;;;;;;;5108011;28;20024;-57
2021/05/11 06:27:54;;;;;;;3.88;3.30;;;;;;;;;;5110469;28;20015;-57
2021/05/11 06:30:20;;;;;;;6.20;3.30;;;;;;;;;;5101533;28;20105;-57
2021/05/11 06:32:45;;;;;;;3.67;3.10;;;;;;;;;;5106217;28;20023;-56
2021/05/11 06:35:10;;;;;;;4.40;3.55;;;;;;;;;;5094709;28;20020;-57
2021/05/11 06:37:35;;;;;;;4.63;3.55;;;;;;;;;;5099869;28;20020;-57
2021/05/11 06:40:01;;;;;;;5.65;3.15;;;;;;;;;;5100744;28;20020;-56
2021/05/11 06:42:28;;;;;;;5.32;3.35;;;;;;;;;;5100526;28;20356;-57
2021/05/11 06:45:26;;;;;;;5.18;3.30;;;;;;;;;;5100562;28;20023;-57
2021/05/11 06:48:02;;;;;;;6.40;3.22;;;;;;;;;;5093559;28;20020;-57
2021/05/11 06:50:39;;;;;;;;;;;;;;;;;;5094523;28;20459;-56
2021/05/11 06:53:14;;;;;;;6.93;3.78;;;;;;;;;;5100796;28;19912;-56
2021/05/11 06:55:44;;;;;;;4.57;3.60;;;;;;;;;;5110701;28;20553;-61
2021/05/11 06:58:09;;;;;;;5.50;3.22;;;;;;;;;;5102558;28;20027;-59
2021/05/11 07:00:35;;;;;;;4.53;2.97;;;;;;;;;;5108561;28;20031;-60
2021/05/11 07:03:00;;;;;;;3.60;2.88;;;;;;;;;;5095547;28;20120;-59
2021/05/11 07:05:29;;;;;;;4.03;2.83;;;;;;;;;;5108499;28;20485;-60
2021/05/11 07:08:07;;;;;;;5.53;3.25;;;;;;;;;;5100266;28;20363;-61
2021/05/11 07:10:34;;;;;;;4.13;3.72;;;;;;;;;;5104970;28;20026;-60
2021/05/11 07:13:13;;;;;;;5.05;3.42;;;;;;;;;;5102354;28;20030;-60
2021/05/11 07:15:40;;;;;;;5.13;3.38;;;;;;;;;;5109900;28;20016;-60
2021/05/11 07:18:08;;;;;;;5.18;3.65;;;;;;;;;;5106685;28;20008;-60
2021/05/11 07:20:33;;;;;;;3.67;3.38;;;;;;;;;;5097616;28;20019;-60
2021/05/11 07:22:59;;;;;;;5.28;3.65;;;;;;;;;;5094973;28;20456;-60
2021/05/11 07:25:26;;;;;;;3.47;2.90;;;;;;;;;;5105657;28;20100;-64
2021/05/11 07:30:27;;;;;;;4.60;2.58;;;;;;;;;;5099543;28;20031;-64
2021/05/11 07:32:53;;;;;;;4.93;2.60;;;;;;;;;;5110928;28;20019;-64
2021/05/11 07:35:18;;;;;;;4.50;2.47;;;;;;;;;;5098106;28;20016;-60
2021/05/11 07:37:43;;;;;;;3.28;2.72;;;;;;;;;;5106536;28;20027;-63
2021/05/11 07:40:09;;;;;;;5.80;2.97;;;;;;;;;;5106478;28;20297;-64
2021/05/11 07:42:34;;;;;;;4.25;3.10;;;;;;;;;;5097988;28;20089;-64
2021/05/11 07:45:02;;;;;;;3.42;2.63;;;;;;;;;;5092667;28;20062;-64
2021/05/11 07:56:42;;;;;;;5.50;4.45;;;;;;;;;;5056692;28;20040;-63
2021/05/11 08:04:22;;;;;;;5.20;4.03;;;;;;;;;;5066470;28;20087;-65
2021/05/11 08:17:21;;;;;;;6.13;4.05;;;;;;;;;;5064317;28;20112;-64
2021/05/11 08:27:34;;;;;;;5.95;4.38;;;;;;;;;;5088616;28;20031;-63
2021/05/11 08:30:00;;;;;;;6.57;3.83;;;;;;;;;;5108803;28;20034;-63
2021/05/11 08:32:25;;;;;;;5.93;4.53;;;;;;;;;;5099710;28;20020;-64
2021/05/11 08:34:50;;;;;;;6.40;4.57;;;;;;;;;;5091240;28;20031;-63
2021/05/11 08:37:16;;;;;;;8.15;4.72;;;;;;;;;;5088356;28;20044;-63
2021/05/11 08:39:45;;;;;;;5.75;4.30;;;;;;;;;;5091223;28;20167;-63
2021/05/11 08:42:10;;;;;;;5.13;4.38;;;;;;;;;;5108142;28;20023;-63
2021/05/11 08:44:35;;;;;;;6.03;4.45;;;;;;;;;;5108519;28;20022;-63
2021/05/11 08:47:01;;;;;;;5.45;3.53;;;;;;;;;;5087058;28;20108;-63
2021/05/11 08:49:26;;;;;;;6.85;4.90;;;;;;;;;;5091616;28;20016;-64
2021/05/11 08:54:43;;;;;;;7.22;4.18;;;;;;;;;;5110915;28;20016;-64
2021/05/11 09:24:27;;;;;;;6.43;4.30;;;;;;;;;;5106251;28;20184;-60
2021/05/11 09:27:08;;;;;;;5.82;4.10;;;;;;;;;;5091502;28;20030;-61
2021/05/11 10:47:12;;;;;;;7.40;2.85;;;;;;;;;;5049305;28;20021;-62
2021/05/11 10:49:31;;;;;;;4.75;2.95;;;;;;;;;;5058061;28;20037;-62
2021/05/11 10:52:15;;;;;;;6.53;3.10;;;;;;;;;;5052929;28;20021;-62
2021/05/11 10:54:50;;;;;;;2.90;2.55;;;;;;;;;;5052096;28;20013;-62
2021/05/11 10:57:31;;;;;;;4.97;3.10;;;;;;;;;;5051238;28;20043;-62
2021/05/11 11:00:17;;;;;;;4.90;3.58;;;;;;;;;;5067599;28;20021;-62
2021/05/11 11:02:47;;;;;;;3.42;3.10;;;;;;;;;;5062692;28;20396;-62
2021/05/11 11:05:32;;;;;;;5.97;4.47;;;;;;;;;;5071469;28;20012;-62
2021/05/11 11:07:58;;;;;;;25.58;22.45;;;;;;;;;;5054158;28;20074;-62
2021/05/11 11:10:27;;;;;;;3.58;2.72;;;;;;;;;;5051551;28;20008;-62
2021/05/11 11:12:53;;;;;;;3.58;3.15;;;;;;;;;;5070080;28;20119;-60
2021/05/11 11:15:19;;;;;;;3.60;3.22;;;;;;;;;;5065019;28;20027;-62
2021/05/11 11:17:50;;;;;;;6.93;3.28;;;;;;;;;;5053496;28;20515;-62
2021/05/11 11:20:17;;;;;;;3.85;3.25;;;;;;;;;;5057437;28;20071;-63
2021/05/11 11:25:26;;;;;;;2.70;2.35;;;;;;;;;;5094215;28;20061;-62
2021/05/11 11:27:51;;;;;;;7.53;3.22;;;;;;;;;;5089348;28;20027;-61
2021/05/11 11:30:17;;;;;;;4.38;2.78;;;;;;;;;;5091517;28;20019;-62
2021/05/11 11:32:43;;;;;;;3.13;2.53;;;;;;;;;;5096243;28;20081;-62
2021/05/11 11:35:09;;;;;;;6.10;2.15;;;;;;;;;;5110547;28;20012;-62
2021/05/11 11:37:34;;;;;;;5.03;3.15;;;;;;;;;;5107450;28;20469;-62
2021/05/11 11:40:01;;;;;;;4.57;2.80;;;;;;;;;;5095646;28;20024;-62
2021/05/11 11:42:31;;;;;;;4.38;2.97;;;;;;;;;;5097666;28;20012;-61
2021/05/11 11:44:59;;;;;;;3.83;2.33;;;;;;;;;;5091596;28;20009;-61
2021/05/11 11:47:24;;;;;;;3.78;2.58;;;;;;;;;;5088960;28;20023;-61
2021/05/11 11:49:55;;;;;;;3.35;2.55;;;;;;;;;;5091639;28;20008;-61
2021/05/11 11:52:33;;;;;;;3.25;2.25;;;;;;;;;;5094793;28;20106;-62
2021/05/11 11:57:48;;;;;;;3.35;2.28;;;;;;;;;;5091715;28;20448;-61
2021/05/11 12:00:21;;;;;;;5.53;2.47;;;;;;;;;;5095942;28;20088;-61
2021/05/11 12:02:59;;;;;;;5.93;2.90;;;;;;;;;;5091454;28;20035;-61
2021/05/11 12:05:25;;;;;;;3.80;3.05;;;;;;;;;;5098682;28;20482;-61
2021/05/11 12:10:25;;;;;;;3.70;3.08;;;;;;;;;;5090176;28;20012;-61
2021/05/11 12:12:51;;;;;;;4.40;2.70;;;;;;;;;;5099362;28;20096;-60
2021/05/11 12:15:21;;;;;;;3.70;2.17;;;;;;;;;;5095017;28;20019;-60
2021/05/11 12:18:16;;;;;;;3.67;2.58;;;;;;;;;;5095709;28;20011;-60
2021/05/11 12:20:41;;;;;;;5.63;3.30;;;;;;;;;;5091445;28;20051;-60
2021/05/11 12:23:18;;;;;;;5.97;3.78;;;;;;;;;;5090764;28;20525;-61
2021/05/11 12:26:03;;;;;;;4.65;3.38;;;;;;;;;;5090858;28;20032;-61
2021/05/11 12:28:47;;;;;;;3.95;2.75;;;;;;;;;;5088181;28;20042;-60
2021/05/11 12:31:12;;;;;;;5.90;3.22;;;;;;;;;;5096178;28;20012;-61
2021/05/11 12:33:44;;;;;;;3.33;2.87;;;;;;;;;;5103081;28;20551;-61
2021/05/11 12:36:16;;;;;;;4.45;2.35;;;;;;;;;;5095808;28;20621;-61
2021/05/11 12:38:42;;;;;;;4.40;3.08;;;;;;;;;;5101792;28;20027;-61
2021/05/11 12:43:36;;;;;;;4.00;2.00;;;;;;;;;;5105245;28;20371;-60
2021/05/11 12:46:01;;;;;;;5.72;2.80;;;;;;;;;;5101928;28;20266;-61
2021/05/11 12:48:26;;;;;;;4.60;2.50;;;;;;;;;;5106678;28;20031;-62
2021/05/11 12:50:52;;;;;;;4.00;3.03;;;;;;;;;;5093408;28;20047;-61
2021/05/11 13:01:27;;;;;;;4.10;2.70;;;;;;;;;;5096085;28;20508;-61
2021/05/11 13:20:42;;;;;;;6.68;2.70;;;;;;;;;;5114004;28;20047;-62
2021/05/11 13:25:45;;;;;;;4.13;2.67;;;;;;;;;;5103334;28;20359;-63
2021/05/11 13:33:21;;;;;;;7.22;3.20;;;;;;;;;;5109459;28;20549;-63
2021/05/11 13:35:46;;;;;;;4.55;2.53;;;;;;;;;;5097480;28;20032;-63
2021/05/11 13:38:12;;;;;;;4.87;2.13;;;;;;;;;;5105278;28;20054;-63
2021/05/11 13:40:37;;;;;;;3.57;3.20;;;;;;;;;;5110744;28;20012;-61
2021/05/11 13:43:02;;;;;;;7.07;1.93;;;;;;;;;;5102024;28;20353;-60
2021/05/11 13:45:28;;;;;;;2.38;2.15;;;;;;;;;;5103670;28;20052;-61
2021/05/11 13:48:07;;;;;;;3.08;2.00;;;;;;;;;;5111403;27;20020;-62
2021/05/11 13:53:10;;;;;;;5.60;3.22;;;;;;;;;;5093569;28;20024;-60
2021/05/11 13:55:51;;;;;;;4.22;2.58;;;;;;;;;;5096145;28;20513;-61
2021/05/11 14:03:44;;;;;;;;;;;;;;;;;;5097599;28;20062;-61
2021/05/11 14:06:09;;;;;;;5.03;2.57;;;;;;;;;;5092620;28;19908;-61
2021/05/11 14:08:35;;;;;;;4.18;1.77;;;;;;;;;;5095833;28;20315;-61
2021/05/11 14:11:00;;;;;;;5.28;2.00;;;;;;;;;;5094320;28;20057;-61
2021/05/11 14:13:25;;;;;;;5.30;2.50;;;;;;;;;;5096828;28;20027;-61
2021/05/11 14:15:51;;;;;;;4.30;2.30;;;;;;;;;;5096864;28;20548;-61
2021/05/11 14:18:16;;;;;;;2.30;2.10;;;;;;;;;;5098706;28;20258;-61
2021/05/11 14:20:41;;;;;;;5.68;3.00;;;;;;;;;;5093222;28;20390;-61
2021/05/11 14:23:06;;;;;;;6.70;2.80;;;;;;;;;;5093243;28;20075;-61
2021/05/11 14:25:31;;;;;;;2.77;2.47;;;;;;;;;;5099418;28;20678;-61
2021/05/11 14:27:57;;;;;;;6.57;3.00;;;;;;;;;;5094127;28;20386;-61
2021/05/11 14:30:22;;;;;;;4.93;2.92;;;;;;;;;;5096555;28;20266;-61
2021/05/11 14:32:48;;;;;;;4.05;3.10;;;;;;;;;;5095127;28;20024;-61
2021/05/11 14:35:13;;;;;;;5.13;3.38;;;;;;;;;;5099071;28;20012;-61
2021/05/11 14:37:38;;;;;;;6.32;3.45;;;;;;;;;;5092851;28;20382;-60
2021/05/11 14:40:04;;;;;;;3.87;3.53;;;;;;;;;;5096889;28;20049;-60
2021/05/11 14:42:29;;;;;;;6.50;3.47;;;;;;;;;;5102270;28;20277;-60
2021/05/11 14:44:54;;;;;;;3.70;3.37;;;;;;;;;;5102593;28;20023;-62
2021/05/11 14:47:20;;;;;;;7.00;3.40;;;;;;;;;;5107153;28;20296;-62
2021/05/11 14:49:45;;;;;;;3.85;3.13;;;;;;;;;;5105195;28;20015;-62
2021/05/11 14:52:13;;;;;;;4.53;3.50;;;;;;;;;;5105573;28;20015;-62
2021/05/11 14:54:38;;;;;;;5.65;4.15;;;;;;;;;;5104918;28;20110;-62
2021/05/11 14:57:03;;;;;;;8.02;4.30;;;;;;;;;;5106116;28;20095;-62
2021/05/11 14:59:29;;;;;;;6.53;4.65;;;;;;;;;;5102857;28;20058;-62
2021/05/11 15:01:54;;;;;;;4.97;4.00;;;;;;;;;;5106620;28;20020;-61
2021/05/11 15:04:19;;;;;;;5.83;4.43;;;;;;;;;;5102643;28;20274;-62
2021/05/11 15:06:44;;;;;;;6.37;4.70;;;;;;;;;;5103316;28;20281;-61
2021/05/11 15:09:09;;;;;;;7.88;6.05;;;;;;;;;;5108993;28;20266;-62
2021/05/11 15:11:35;;;;;;;8.15;6.63;;;;;;;;;;5097540;28;20034;-62
2021/05/11 15:14:01;;;;;;;6.18;5.57;;;;;;;;;;5107342;28;20027;-61
2021/05/11 15:16:27;;;;;;;7.75;6.13;;;;;;;;;;5109467;28;20026;-62
2021/05/11 15:18:52;;;;;;;8.05;6.15;;;;;;;;;;5095765;28;20020;-62
2021/05/11 15:21:17;;;;;;;8.35;6.72;;;;;;;;;;5098549;28;20042;-62
2021/05/11 15:23:43;;;;;;;7.60;6.90;;;;;;;;;;5109073;28;20138;-62
2021/05/11 15:26:09;;;;;;;8.68;7.05;;;;;;;;;;5092947;28;20089;-62
2021/05/11 15:28:35;;;;;;;9.07;7.43;;;;;;;;;;5106128;28;20020;-60
2021/05/11 15:31:00;;;;;;;6.72;6.03;;;;;;;;;;5102422;28;20402;-61
2021/05/11 15:33:25;;;;;;;10.38;6.93;;;;;;;;;;5094646;28;20035;-60
2021/05/11 15:35:51;;;;;;;8.02;6.68;;;;;;;;;;5106374;28;20398;-61
2021/05/11 15:38:16;;;;;;;9.02;6.80;;;;;;;;;;5110588;28;20094;-61
2021/05/11 15:40:42;;;;;;;7.70;7.00;;;;;;;;;;5109851;28;20046;-61
2021/05/11 15:43:08;;;;;;;10.18;7.97;;;;;;;;;;5104572;28;20340;-62
2021/05/11 15:45:34;;;;;;;9.55;7.80;;;;;;;;;;5098327;28;20442;-61
2021/05/11 15:48:03;;;;;;;11.63;8.23;;;;;;;;;;5094287;28;20390;-61
2021/05/11 15:50:30;;;;;;;10.95;9.20;;;;;;;;;;5096132;28;20474;-61
2021/05/11 15:53:01;;;;;;;10.30;9.23;;;;;;;;;;5091337;28;20372;-61
2021/05/11 15:55:27;;;;;;;10.02;8.77;;;;;;;;;;5096279;28;20008;-61
2021/05/11 15:57:52;;;;;;;10.15;8.82;;;;;;;;;;5102914;28;20016;-59
2021/05/11 16:00:18;;;;;;;12.48;8.55;;;;;;;;;;5109027;28;20022;-61
2021/05/11 16:02:44;;;;;;;10.77;9.73;;;;;;;;;;5107043;28;20019;-60
2021/05/11 16:05:09;;;;;;;11.18;9.23;;;;;;;;;;5103628;28;20126;-60
2021/05/11 16:07:35;;;;;;;9.80;8.77;;;;;;;;;;5097996;28;20018;-60
2021/05/11 16:10:02;;;;;;;10.18;9.18;;;;;;;;;;5105828;28;20390;-60
2021/05/11 16:12:27;;;;;;;10.00;9.00;;;;;;;;;;5097164;28;20027;-60
2021/05/11 16:14:52;;;;;;;11.13;9.52;;;;;;;;;;5092380;28;20303;-61
2021/05/11 16:17:18;;;;;;;10.35;8.05;;;;;;;;;;5106996;28;20081;-61
2021/05/11 16:19:45;;;;;;;10.85;9.75;;;;;;;;;;5107578;28;20031;-61
2021/05/11 16:22:10;;;;;;;7.80;5.53;;;;;;;;;;5102550;28;20051;-61
2021/05/11 16:24:36;;;;;;;6.20;5.60;;;;;;;;;;5109033;28;20548;-61
2021/05/11 16:27:02;;;;;;;5.55;4.85;;;;;;;;;;5093020;28;20064;-60
2021/05/11 16:29:27;;;;;;;15.90;11.07;;;;;;;;;;5102242;28;20096;-63
2021/05/11 16:31:52;;;;;;;28.20;19.42;;;;;;;;;;5094173;28;20016;-64
2021/05/11 16:34:19;;;;;;;28.15;23.48;;;;;;;;;;5102375;28;20478;-62
2021/05/11 16:36:44;;;;;;;69.32;53.30;;;;;;;;;;5102431;28;20016;-61
2021/05/11 16:39:10;;;;;;;97.15;65.65;;;;;;;;;;5106130;28;20019;-58
2021/05/11 16:41:35;;;;;;;57.47;43.10;;;;;;;;;;5099271;28;20012;-60
2021/05/11 16:44:00;;;;;;;100.15;63.70;;;;;;;;;;5106329;28;20031;-60
2021/05/11 16:46:25;;;;;;;79.47;56.63;;;;;;;;;;5099526;28;20085;-59
2021/05/11 16:48:51;;;;;;;72.25;54.50;;;;;;;;;;5096967;28;20425;-59
2021/05/11 16:51:16;;;;;;;55.53;49.15;;;;;;;;;;5094904;28;20022;-59
2021/05/11 16:53:41;;;;;;;45.42;39.58;;;;;;;;;;5091014;28;20763;-60
2021/05/11 16:56:07;;;;;;;33.38;29.80;;;;;;;;;;5102939;28;20375;-60
2021/05/11 16:58:32;;;;;;;41.80;35.20;;;;;;;;;;5110432;28;20039;-59
2021/05/11 17:00:57;;;;;;;41.45;36.17;;;;;;;;;;5103882;28;20394;-58
2021/05/11 17:03:23;;;;;;;47.40;38.38;;;;;;;;;;5100808;28;20019;-58
2021/05/11 17:05:49;;;;;;;45.80;37.67;;;;;;;;;;5100377;28;20463;-59
2021/05/11 17:08:14;;;;;;;55.78;43.50;;;;;;;;;;5100739;28;20030;-59
2021/05/11 17:10:41;;;;;;;41.88;33.72;;;;;;;;;;5093995;28;20036;-58
2021/05/11 17:13:07;;;;;;;51.75;41.33;;;;;;;;;;5109646;28;20564;-59
2021/05/11 17:15:32;;;;;;;51.20;45.30;;;;;;;;;;5107638;28;20024;-58
2021/05/11 17:17:58;;;;;;;45.15;39.55;;;;;;;;;;5106802;28;20367;-61
2021/05/11 17:20:26;;;;;;;60.10;48.85;;;;;;;;;;5097938;28;20016;-61
2021/05/11 17:22:52;;;;;;;64.57;52.10;;;;;;;;;;5099365;28;20040;-61
2021/05/11 17:25:18;;;;;;;70.47;55.15;;;;;;;;;;5104133;28;20395;-61
2021/05/11 17:27:43;;;;;;;48.72;43.80;;;;;;;;;;5105841;28;20020;-61
2021/05/11 17:30:10;;;;;;;52.88;46.90;;;;;;;;;;5099013;28;20378;-61
2021/05/11 17:32:36;;;;;;;53.67;47.92;;;;;;;;;;5103733;28;20035;-61
2021/05/11 17:35:02;;;;;;;46.80;41.65;;;;;;;;;;5097241;28;20020;-60
2021/05/11 17:37:27;;;;;;;54.05;48.30;;;;;;;;;;5095035;28;20084;-61
2021/05/11 17:39:53;;;;;;;48.72;43.58;;;;;;;;;;5106995;28;20106;-61
2021/05/11 17:42:18;;;;;;;46.22;41.53;;;;;;;;;;5104452;28;20058;-61
2021/05/11 17:44:44;;;;;;;44.85;40.33;;;;;;;;;;5106825;28;20791;-61
2021/05/11 17:47:12;;;;;;;41.20;37.00;;;;;;;;;;5098216;27;20016;-61
2021/05/11 17:49:37;;;;;;;41.28;37.08;;;;;;;;;;5106470;28;20403;-61
2021/05/11 17:52:03;;;;;;;35.28;31.98;;;;;;;;;;5101382;28;20030;-60
2021/05/11 17:54:28;;;;;;;37.58;33.72;;;;;;;;;;5099481;28;20394;-60
2021/05/11 17:56:53;;;;;;;40.75;36.55;;;;;;;;;;5093319;28;20024;-61
2021/05/11 17:59:18;;;;;;;51.33;46.13;;;;;;;;;;5103162;28;20094;-61
2021/05/11 18:01:44;;;;;;;50.13;45.03;;;;;;;;;;5102158;28;20474;-61
2021/05/11 18:04:09;;;;;;;38.33;34.33;;;;;;;;;;5103319;28;20028;-61
2021/05/11 18:06:35;;;;;;;38.97;35.08;;;;;;;;;;5098894;28;20034;-61
2021/05/11 18:09:00;;;;;;;35.72;32.13;;;;;;;;;;5106131;28;20031;-61
2021/05/11 18:11:25;;;;;;;26.77;24.25;;;;;;;;;;5094314;28;20020;-61
2021/05/11 18:13:51;;;;;;;33.30;30.15;;;;;;;;;;5104600;28;20114;-61
2021/05/11 18:16:16;;;;;;;36.78;33.08;;;;;;;;;;5098125;28;20035;-61
2021/05/11 18:18:42;;;;;;;29.05;26.30;;;;;;;;;;5105401;28;20045;-61
2021/05/11 18:21:07;;;;;;;33.75;30.50;;;;;;;;;;5101981;28;20085;-61
2021/05/11 18:23:32;;;;;;;33.53;30.13;;;;;;;;;;5091254;28;20398;-60
2021/05/11 18:25:57;;;;;;;36.88;32.97;;;;;;;;;;5091552;28;20383;-61
2021/05/11 18:28:23;;;;;;;35.13;31.52;;;;;;;;;;5098941;28;20172;-61
2021/05/11 18:30:48;;;;;;;34.63;31.50;;;;;;;;;;5105241;28;20016;-61
2021/05/11 18:33:14;;;;;;;34.95;31.73;;;;;;;;;;5104525;28;20051;-60
2021/05/11 18:35:40;;;;;;;31.60;28.75;;;;;;;;;;5097691;28;20041;-60
2021/05/11 18:38:07;;;;;;;32.33;29.08;;;;;;;;;;5103712;28;21878;-61
2021/05/11 18:40:33;;;;;;;25.30;22.98;;;;;;;;;;5104120;28;20370;-61
2021/05/11 18:43:00;;;;;;;32.10;28.92;;;;;;;;;;5101405;28;20016;-61
2021/05/11 18:45:25;;;;;;;30.38;27.48;;;;;;;;;;5099859;28;20021;-60
2021/05/11 18:47:55;;;;;;;32.70;29.50;;;;;;;;;;5103067;28;20024;-61